Time,TemperatureF,DewpointF,PressureIn,WindDirection,WindDirectionDegrees,WindSpeedMPH,WindSpeedGustMPH,Humidity,HourlyPrecipIn,Conditions,Clouds,dailyrainin,SoftwareType,DateUTC
2013-01-11 00:00:00,45.4,41.2,30.02,SW,228,0.0,0.0,85,0.00,,SKC,0.00,VWS V14.01,2013-01-11 06:00:00,
2013-01-11 00:03:00,45.2,41.0,30.02,SW,228,0.0,0.0,85,0.00,,SKC,0.00,VWS V14.01,2013-01-11 06:03:00,
2013-01-11 00:08:00,45.1,41.2,30.02,SW,228,0.0,0.0,86,0.00,,SKC,0.00,VWS V14.01,2013-01-11 06:08:00,
2013-01-11 00:10:00,45.1,40.9,30.02,SW,228,0.0,0.0,85,0.00,,SKC,0.00,VWS V14.01,2013-01-11 06:10:00,
2013-01-11 00:13:00,45.4,42.1,30.02,SW,228,0.0,0.0,88,0.00,,SKC,0.00,VWS V14.01,2013-01-11 06:13:00,
2013-01-11 00:18:00,46.1,42.8,30.02,SW,228,0.0,0.0,88,0.00,,SKC,0.00,VWS V14.01,2013-01-11 06:18:00,
2013-01-11 00:20:00,45.9,42.5,30.02,SW,228,0.0,0.0,88,0.00,,SKC,0.00,VWS V14.01,2013-01-11 06:20:00,
2013-01-11 00:23:00,46.7,43.0,30.02,SW,228,0.0,0.0,87,0.00,,SKC,0.00,VWS V14.01,2013-01-11 06:23:00,
2013-01-11 00:28:00,46.9,42.9,30.01,SW,228,0.0,0.0,86,0.00,,SKC,0.00,VWS V14.01,2013-01-11 06:28:00,
2013-01-11 00:30:00,46.8,42.8,30.01,SW,228,0.0,0.0,86,0.00,,SKC,0.00,VWS V14.01,2013-01-11 06:30:00,
2013-01-11 00:33:00,47.2,42.9,30.01,SW,228,0.0,0.0,85,0.00,,SKC,0.00,VWS V14.01,2013-01-11 06:33:00,
2013-01-11 00:38:00,47.2,42.6,30.01,SW,228,0.0,0.0,84,0.00,,SKC,0.00,VWS V14.01,2013-01-11 06:38:00,
2013-01-11 00:40:00,47.2,42.6,30.01,SW,228,0.0,0.0,84,0.00,,SKC,0.00,VWS V14.01,2013-01-11 06:40:00,
2013-01-11 00:43:00,47.2,42.6,30.01,SW,228,0.0,0.0,84,0.00,,SKC,0.00,VWS V14.01,2013-01-11 06:43:00,
2013-01-11 00:48:00,47.1,42.5,30.01,SW,228,0.0,0.0,84,0.00,,SKC,0.00,VWS V14.01,2013-01-11 06:48:00,
2013-01-11 00:50:00,47.1,42.5,30.02,SW,228,0.0,0.0,84,0.00,,SKC,0.00,VWS V14.01,2013-01-11 06:50:00,
2013-01-11 00:53:00,47.0,42.4,30.01,SW,228,0.0,0.0,84,0.00,,SKC,0.00,VWS V14.01,2013-01-11 06:53:00,
2013-01-11 00:58:00,47.1,42.5,30.01,SW,228,0.0,0.0,84,0.00,,SKC,0.00,VWS V14.01,2013-01-11 06:58:00,
2013-01-11 01:00:00,47.0,42.4,30.01,SW,228,0.0,0.0,84,0.00,,SKC,0.00,VWS V14.01,2013-01-11 07:00:00,
2013-01-11 01:03:00,47.1,42.8,30.01,SW,228,0.0,0.0,85,0.00,,SKC,0.00,VWS V14.01,2013-01-11 07:03:00,
2013-01-11 01:08:00,47.2,42.9,30.01,SW,228,0.0,0.0,85,0.00,,SKC,0.00,VWS V14.01,2013-01-11 07:08:00,
2013-01-11 01:10:00,47.2,42.9,30.01,SW,228,0.0,0.0,85,0.00,,SKC,0.00,VWS V14.01,2013-01-11 07:10:00,
2013-01-11 01:13:00,47.3,43.0,30.01,SW,228,0.0,0.0,85,0.00,,SKC,0.00,VWS V14.01,2013-01-11 07:13:00,
2013-01-11 01:18:00,47.4,43.1,30.01,SW,228,0.0,0.0,85,0.00,,SKC,0.00,VWS V14.01,2013-01-11 07:18:00,
2013-01-11 01:20:00,47.4,43.4,30.01,SW,228,0.0,0.0,86,0.00,,SKC,0.00,VWS V14.01,2013-01-11 07:20:00,
2013-01-11 01:23:00,47.4,43.1,30.01,SW,228,0.0,0.0,85,0.00,,SKC,0.00,VWS V14.01,2013-01-11 07:23:00,
2013-01-11 01:28:00,47.3,43.0,30.02,SW,228,0.0,0.0,85,0.00,,SKC,0.00,VWS V14.01,2013-01-11 07:28:00,
2013-01-11 01:30:00,47.3,43.0,30.01,SW,228,0.0,0.0,85,0.00,,SKC,0.00,VWS V14.01,2013-01-11 07:30:00,
2013-01-11 01:33:00,47.2,43.2,30.02,SW,228,0.0,0.0,86,0.00,,SKC,0.00,VWS V14.01,2013-01-11 07:33:00,
2013-01-11 01:38:00,47.0,43.0,30.02,SW,228,0.0,0.0,86,0.00,,SKC,0.00,VWS V14.01,2013-01-11 07:38:00,
2013-01-11 01:40:00,47.1,43.1,30.02,SW,228,0.0,0.0,86,0.00,,SKC,0.00,VWS V14.01,2013-01-11 07:40:00,
2013-01-11 01:43:00,46.9,43.2,30.02,SW,228,0.0,0.0,87,0.00,,SKC,0.00,VWS V14.01,2013-01-11 07:43:00,
2013-01-11 01:48:00,46.9,43.5,30.02,SW,228,0.0,0.0,88,0.00,,SKC,0.00,VWS V14.01,2013-01-11 07:48:00,
2013-01-11 01:50:00,46.9,43.5,30.02,SW,228,0.0,0.0,88,0.00,,SKC,0.00,VWS V14.01,2013-01-11 07:50:00,
2013-01-11 01:53:00,46.9,43.5,30.02,SW,228,0.0,0.0,88,0.00,,SKC,0.00,VWS V14.01,2013-01-11 07:53:00,
2013-01-11 01:58:00,46.9,43.8,30.02,SW,228,0.0,0.0,89,0.00,,SKC,0.00,VWS V14.01,2013-01-11 07:58:00,
2013-01-11 02:00:00,46.9,43.8,30.01,SW,228,0.0,0.0,89,0.00,,SKC,0.00,VWS V14.01,2013-01-11 08:00:00,
2013-01-11 02:03:00,47.0,43.9,30.02,SW,228,0.0,0.0,89,0.00,,SKC,0.00,VWS V14.01,2013-01-11 08:03:00,
2013-01-11 02:08:00,46.9,43.8,30.02,SW,228,0.0,0.0,89,0.00,,SKC,0.00,VWS V14.01,2013-01-11 08:08:00,
2013-01-11 02:10:00,46.9,43.8,30.02,SW,228,0.0,0.0,89,0.00,,SKC,0.00,VWS V14.01,2013-01-11 08:10:00,
2013-01-11 02:13:00,46.8,43.7,30.02,SW,228,0.0,0.0,89,0.00,,SKC,0.00,VWS V14.01,2013-01-11 08:13:00,
2013-01-11 02:18:00,46.6,43.5,30.02,SW,228,0.0,0.0,89,0.00,,SKC,0.00,VWS V14.01,2013-01-11 08:18:00,
2013-01-11 02:20:00,46.7,43.6,30.03,SW,228,0.0,0.0,89,0.00,,SKC,0.00,VWS V14.01,2013-01-11 08:20:00,
2013-01-11 02:23:00,46.4,43.3,30.03,SW,228,0.0,0.0,89,0.00,,SKC,0.00,VWS V14.01,2013-01-11 08:23:00,
2013-01-11 02:28:00,46.2,43.1,30.02,SW,228,0.0,0.0,89,0.00,,SKC,0.00,VWS V14.01,2013-01-11 08:28:00,
2013-01-11 02:30:00,46.3,43.2,30.02,SW,228,0.0,0.0,89,0.00,,SKC,0.00,VWS V14.01,2013-01-11 08:30:00,
2013-01-11 02:33:00,46.0,43.0,30.02,SW,228,0.0,0.0,89,0.00,,SKC,0.00,VWS V14.01,2013-01-11 08:33:00,
2013-01-11 02:38:00,45.9,43.1,30.02,SW,228,0.0,0.0,90,0.00,,SKC,0.00,VWS V14.01,2013-01-11 08:38:00,
2013-01-11 02:40:00,46.0,43.2,30.02,SW,228,0.0,0.0,90,0.00,,SKC,0.00,VWS V14.01,2013-01-11 08:40:00,
2013-01-11 02:43:00,45.9,43.1,30.02,SW,228,0.0,0.0,90,0.00,,SKC,0.00,VWS V14.01,2013-01-11 08:43:00,
2013-01-11 02:48:00,45.8,43.0,30.02,SW,228,0.0,0.0,90,0.00,,SKC,0.00,VWS V14.01,2013-01-11 08:48:00,
2013-01-11 02:50:00,45.8,43.0,30.02,SW,228,0.0,0.0,90,0.00,,SKC,0.00,VWS V14.01,2013-01-11 08:50:00,
2013-01-11 02:53:00,45.8,43.3,30.01,SW,228,0.0,0.0,91,0.00,,SKC,0.00,VWS V14.01,2013-01-11 08:53:00,
2013-01-11 02:58:00,45.7,43.2,30.01,SW,228,0.0,0.0,91,0.00,,SKC,0.00,VWS V14.01,2013-01-11 08:58:00,
2013-01-11 03:00:00,45.7,43.2,30.01,SW,228,0.0,0.0,91,0.00,,SKC,0.00,VWS V14.01,2013-01-11 09:00:00,
2013-01-11 03:03:00,45.7,43.5,30.01,SW,228,0.0,0.0,92,0.00,,SKC,0.00,VWS V14.01,2013-01-11 09:03:00,
2013-01-11 03:08:00,45.8,43.6,30.01,SW,228,0.0,0.0,92,0.00,,SKC,0.00,VWS V14.01,2013-01-11 09:08:00,
2013-01-11 03:10:00,45.8,43.6,30.01,SW,228,0.0,0.0,92,0.00,,SKC,0.00,VWS V14.01,2013-01-11 09:10:00,
2013-01-11 03:13:00,45.8,43.6,30.01,SW,228,0.0,0.0,92,0.00,,SKC,0.00,VWS V14.01,2013-01-11 09:13:00,
2013-01-11 03:18:00,45.7,43.5,30.01,SW,228,0.0,0.0,92,0.00,,SKC,0.00,VWS V14.01,2013-01-11 09:18:00,
2013-01-11 03:20:00,45.7,43.5,30.01,SW,228,0.0,0.0,92,0.00,,SKC,0.00,VWS V14.01,2013-01-11 09:20:00,
2013-01-11 03:23:00,45.6,43.4,30.01,SW,228,0.0,0.0,92,0.00,,SKC,0.00,VWS V14.01,2013-01-11 09:23:00,
2013-01-11 03:28:00,45.5,43.3,30.00,SW,228,0.0,0.0,92,0.00,,SKC,0.00,VWS V14.01,2013-01-11 09:28:00,
2013-01-11 03:30:00,45.6,43.4,30.00,SW,228,0.0,0.0,92,0.00,,SKC,0.00,VWS V14.01,2013-01-11 09:30:00,
2013-01-11 03:33:00,45.5,43.3,30.00,SW,228,0.0,0.0,92,0.00,,SKC,0.00,VWS V14.01,2013-01-11 09:33:00,
2013-01-11 03:38:00,45.5,43.3,30.00,SW,228,0.0,0.0,92,0.00,,SKC,0.00,VWS V14.01,2013-01-11 09:38:00,
2013-01-11 03:40:00,45.5,43.3,30.00,SW,228,0.0,0.0,92,0.00,,SKC,0.00,VWS V14.01,2013-01-11 09:40:00,
2013-01-11 03:43:00,45.6,43.7,30.00,SW,228,0.0,0.0,93,0.00,,SKC,0.00,VWS V14.01,2013-01-11 09:43:00,
2013-01-11 03:48:00,45.7,43.8,30.00,SW,228,0.0,0.0,93,0.00,,SKC,0.00,VWS V14.01,2013-01-11 09:48:00,
2013-01-11 03:50:00,45.7,43.8,30.00,SW,228,0.0,0.0,93,0.00,,SKC,0.00,VWS V14.01,2013-01-11 09:50:00,
2013-01-11 03:53:00,45.6,43.4,30.00,SW,228,0.0,0.0,92,0.00,,SKC,0.00,VWS V14.01,2013-01-11 09:53:00,
2013-01-11 03:58:00,45.5,43.3,30.00,SW,228,0.0,0.0,92,0.00,,SKC,0.00,VWS V14.01,2013-01-11 09:58:00,
2013-01-11 04:00:00,45.5,43.3,30.00,SW,228,0.0,0.0,92,0.00,,SKC,0.00,VWS V14.01,2013-01-11 10:00:00,
2013-01-11 04:03:00,45.2,43.0,30.00,SW,228,0.0,0.0,92,0.00,,SKC,0.00,VWS V14.01,2013-01-11 10:03:00,
2013-01-11 04:08:00,45.0,42.8,30.00,SW,228,0.0,0.0,92,0.00,,SKC,0.00,VWS V14.01,2013-01-11 10:08:00,
2013-01-11 04:10:00,45.0,42.8,30.00,SW,228,0.0,0.0,92,0.00,,SKC,0.00,VWS V14.01,2013-01-11 10:10:00,
2013-01-11 04:13:00,45.0,42.8,30.00,SW,228,0.0,0.0,92,0.00,,SKC,0.00,VWS V14.01,2013-01-11 10:13:00,
2013-01-11 04:18:00,44.9,42.7,29.99,SW,228,0.0,0.0,92,0.00,,SKC,0.00,VWS V14.01,2013-01-11 10:18:00,
2013-01-11 04:20:00,44.9,42.7,29.99,SW,228,0.0,0.0,92,0.00,,SKC,0.00,VWS V14.01,2013-01-11 10:20:00,
2013-01-11 04:23:00,44.9,43.0,30.00,SW,228,0.0,0.0,93,0.00,,SKC,0.00,VWS V14.01,2013-01-11 10:23:00,
2013-01-11 04:28:00,45.0,43.1,29.99,SW,228,0.0,0.0,93,0.00,,SKC,0.00,VWS V14.01,2013-01-11 10:28:00,
2013-01-11 04:30:00,44.9,43.0,29.99,SW,228,0.0,0.0,93,0.00,,SKC,0.00,VWS V14.01,2013-01-11 10:30:00,
2013-01-11 04:33:00,45.0,43.1,29.99,SW,228,0.0,0.0,93,0.00,,SKC,0.00,VWS V14.01,2013-01-11 10:33:00,
2013-01-11 04:38:00,44.9,43.0,29.99,SW,228,0.0,0.0,93,0.00,,SKC,0.00,VWS V14.01,2013-01-11 10:38:00,
2013-01-11 04:40:00,44.9,43.0,29.99,SW,228,0.0,0.0,93,0.00,,SKC,0.00,VWS V14.01,2013-01-11 10:40:00,
2013-01-11 04:43:00,44.9,43.0,29.98,SW,228,0.0,0.0,93,0.00,,SKC,0.00,VWS V14.01,2013-01-11 10:43:00,
2013-01-11 04:48:00,44.7,42.8,29.98,SW,228,0.0,0.0,93,0.00,,SKC,0.00,VWS V14.01,2013-01-11 10:48:00,
2013-01-11 04:50:00,44.8,42.9,29.98,SW,228,0.0,0.0,93,0.00,,SKC,0.00,VWS V14.01,2013-01-11 10:50:00,
2013-01-11 04:53:00,44.6,42.7,29.98,SW,228,0.0,0.0,93,0.00,,SKC,0.00,VWS V14.01,2013-01-11 10:53:00,
2013-01-11 04:58:00,44.5,42.6,29.98,SW,228,0.0,0.0,93,0.00,,SKC,0.00,VWS V14.01,2013-01-11 10:58:00,
2013-01-11 05:00:00,44.5,42.6,29.98,SW,228,0.0,0.0,93,0.00,,SKC,0.00,VWS V14.01,2013-01-11 11:00:00,
2013-01-11 05:03:00,44.4,42.5,29.98,SW,228,0.0,0.0,93,0.00,,SKC,0.00,VWS V14.01,2013-01-11 11:03:00,
2013-01-11 05:08:00,44.3,42.4,29.97,SW,228,0.0,0.0,93,0.00,,SKC,0.00,VWS V14.01,2013-01-11 11:08:00,
2013-01-11 05:10:00,44.3,42.4,29.98,SW,228,0.0,0.0,93,0.00,,SKC,0.00,VWS V14.01,2013-01-11 11:10:00,
2013-01-11 05:13:00,44.2,42.3,29.97,SW,228,0.0,0.0,93,0.00,,SKC,0.00,VWS V14.01,2013-01-11 11:13:00,
2013-01-11 05:18:00,44.1,42.2,29.97,SW,228,0.0,0.0,93,0.00,,SKC,0.00,VWS V14.01,2013-01-11 11:18:00,
2013-01-11 05:20:00,44.1,42.2,29.98,SW,228,0.0,0.0,93,0.00,,SKC,0.00,VWS V14.01,2013-01-11 11:20:00,
2013-01-11 05:23:00,43.9,42.0,29.97,SW,228,0.0,0.0,93,0.00,,SKC,0.00,VWS V14.01,2013-01-11 11:23:00,
2013-01-11 05:28:00,43.8,41.9,29.97,SW,228,0.0,0.0,93,0.00,,SKC,0.00,VWS V14.01,2013-01-11 11:28:00,
2013-01-11 05:30:00,43.8,41.9,29.97,SW,228,0.0,0.0,93,0.00,,SKC,0.00,VWS V14.01,2013-01-11 11:30:00,
2013-01-11 05:33:00,43.7,41.8,29.97,SW,228,0.0,0.0,93,0.00,,SKC,0.00,VWS V14.01,2013-01-11 11:33:00,
2013-01-11 05:38:00,43.7,42.1,29.97,SW,228,0.0,0.0,94,0.00,,SKC,0.00,VWS V14.01,2013-01-11 11:38:00,
2013-01-11 05:40:00,43.7,41.8,29.97,SW,228,0.0,0.0,93,0.00,,SKC,0.00,VWS V14.01,2013-01-11 11:40:00,
2013-01-11 05:43:00,43.8,42.2,29.98,SW,228,0.0,0.0,94,0.00,,SKC,0.00,VWS V14.01,2013-01-11 11:43:00,
2013-01-11 05:48:00,43.9,42.3,29.97,SW,228,0.0,0.0,94,0.00,,SKC,0.00,VWS V14.01,2013-01-11 11:48:00,
2013-01-11 05:50:00,43.9,42.3,29.97,SW,228,0.0,0.0,94,0.00,,SKC,0.00,VWS V14.01,2013-01-11 11:50:00,
2013-01-11 05:53:00,43.8,42.2,29.97,SW,228,0.0,0.0,94,0.00,,SKC,0.00,VWS V14.01,2013-01-11 11:53:00,
2013-01-11 05:58:00,43.8,42.2,29.97,SW,228,0.0,0.0,94,0.00,,SKC,0.00,VWS V14.01,2013-01-11 11:58:00,
2013-01-11 06:00:00,43.8,42.2,29.97,SW,228,0.0,0.0,94,0.00,,SKC,0.00,VWS V14.01,2013-01-11 12:00:00,
2013-01-11 06:03:00,43.8,42.2,29.97,SW,228,0.0,0.0,94,0.00,,SKC,0.00,VWS V14.01,2013-01-11 12:03:00,
2013-01-11 06:08:00,43.8,42.2,29.97,SW,228,0.0,0.0,94,0.00,,SKC,0.00,VWS V14.01,2013-01-11 12:08:00,
2013-01-11 06:10:00,43.8,42.2,29.97,SW,228,0.0,0.0,94,0.00,,SKC,0.00,VWS V14.01,2013-01-11 12:10:00,
2013-01-11 06:13:00,43.8,42.2,29.97,SW,228,0.0,0.0,94,0.00,,SKC,0.00,VWS V14.01,2013-01-11 12:13:00,
2013-01-11 06:18:00,43.9,42.3,29.97,SW,228,0.0,0.0,94,0.00,,SKC,0.00,VWS V14.01,2013-01-11 12:18:00,
2013-01-11 06:20:00,43.9,42.3,29.97,SW,228,0.0,0.0,94,0.00,,SKC,0.00,VWS V14.01,2013-01-11 12:20:00,
2013-01-11 06:23:00,44.0,42.4,29.97,SW,228,0.0,0.0,94,0.00,,SKC,0.00,VWS V14.01,2013-01-11 12:23:00,
2013-01-11 06:28:00,44.0,42.4,29.97,SW,228,0.0,0.0,94,0.00,,SKC,0.00,VWS V14.01,2013-01-11 12:28:00,
2013-01-11 06:30:00,44.0,42.4,29.97,SW,228,0.0,0.0,94,0.00,,SKC,0.00,VWS V14.01,2013-01-11 12:30:00,
2013-01-11 06:33:00,44.0,42.4,29.96,SW,228,0.0,0.0,94,0.00,,SKC,0.00,VWS V14.01,2013-01-11 12:33:00,
2013-01-11 06:38:00,44.1,42.8,29.96,SW,228,0.0,0.0,95,0.00,,SKC,0.00,VWS V14.01,2013-01-11 12:38:00,
2013-01-11 06:40:00,44.1,42.8,29.96,SW,228,0.0,0.0,95,0.00,,SKC,0.00,VWS V14.01,2013-01-11 12:40:00,
2013-01-11 06:43:00,44.1,42.8,29.96,SW,228,0.0,0.0,95,0.00,,SKC,0.00,VWS V14.01,2013-01-11 12:43:00,
2013-01-11 06:48:00,44.2,42.9,29.97,SW,228,0.0,0.0,95,0.00,,SKC,0.00,VWS V14.01,2013-01-11 12:48:00,
2013-01-11 06:50:00,44.2,42.9,29.97,SW,228,0.0,0.0,95,0.00,,SKC,0.00,VWS V14.01,2013-01-11 12:50:00,
2013-01-11 06:53:00,44.3,43.0,29.97,SW,228,0.0,0.0,95,0.00,,SKC,0.00,VWS V14.01,2013-01-11 12:53:00,
2013-01-11 06:58:00,44.5,43.2,29.97,SW,228,0.0,0.0,95,0.00,,SKC,0.00,VWS V14.01,2013-01-11 12:58:00,
2013-01-11 07:00:00,44.4,43.1,29.97,SW,228,0.0,0.0,95,0.00,,SKC,0.00,VWS V14.01,2013-01-11 13:00:00,
2013-01-11 07:03:00,44.5,43.2,29.96,SW,228,0.0,0.0,95,0.00,,SKC,0.00,VWS V14.01,2013-01-11 13:03:00,
2013-01-11 07:08:00,44.5,43.2,29.97,SW,228,0.0,0.0,95,0.00,,SKC,0.00,VWS V14.01,2013-01-11 13:08:00,
2013-01-11 07:10:00,44.5,43.2,29.97,SW,228,0.0,0.0,95,0.00,,SKC,0.00,VWS V14.01,2013-01-11 13:10:00,
2013-01-11 07:13:00,44.6,43.3,29.97,SW,228,0.0,0.0,95,0.00,,SKC,0.00,VWS V14.01,2013-01-11 13:13:00,
2013-01-11 07:18:00,44.8,43.5,29.97,SW,228,0.0,0.0,95,0.00,,SKC,0.00,VWS V14.01,2013-01-11 13:18:00,
2013-01-11 07:20:00,44.7,43.4,29.97,SW,228,0.0,0.0,95,0.00,,SKC,0.00,VWS V14.01,2013-01-11 13:20:00,
2013-01-11 07:23:00,44.9,43.6,29.97,SW,228,0.0,0.0,95,0.00,,SKC,0.00,VWS V14.01,2013-01-11 13:23:00,
2013-01-11 07:28:00,45.1,43.8,29.97,SW,228,0.0,0.0,95,0.00,,SKC,0.00,VWS V14.01,2013-01-11 13:28:00,
2013-01-11 07:30:00,45.1,43.8,29.97,SW,228,0.0,0.0,95,0.00,,SKC,0.00,VWS V14.01,2013-01-11 13:30:00,
2013-01-11 07:33:00,45.3,44.0,29.97,SW,228,0.0,0.0,95,0.00,,SKC,0.00,VWS V14.01,2013-01-11 13:33:00,
2013-01-11 07:38:00,45.4,44.0,29.97,SW,228,0.0,0.0,95,0.00,,SKC,0.00,VWS V14.01,2013-01-11 13:38:00,
2013-01-11 07:40:00,45.4,44.1,29.97,SW,228,0.0,0.0,95,0.00,,SKC,0.00,VWS V14.01,2013-01-11 13:40:00,
2013-01-11 07:43:00,45.5,44.2,29.97,SW,228,0.0,0.0,95,0.00,,SKC,0.00,VWS V14.01,2013-01-11 13:43:00,
2013-01-11 07:48:00,45.6,44.2,29.97,SW,228,0.0,0.0,95,0.00,,SKC,0.00,VWS V14.01,2013-01-11 13:48:00,
2013-01-11 07:50:00,45.6,44.2,29.97,SW,228,0.0,0.0,95,0.00,,SKC,0.00,VWS V14.01,2013-01-11 13:50:00,
2013-01-11 07:53:00,45.7,44.3,29.97,SW,228,0.0,0.0,95,0.00,,SKC,0.00,VWS V14.01,2013-01-11 13:53:00,
2013-01-11 07:58:00,45.9,44.8,29.97,SW,228,0.0,0.0,96,0.00,,SKC,0.00,VWS V14.01,2013-01-11 13:58:00,
2013-01-11 08:00:00,45.9,44.5,29.97,SW,228,0.0,0.0,95,0.00,,SKC,0.00,VWS V14.01,2013-01-11 14:00:00,
2013-01-11 08:03:00,46.4,45.3,29.97,SW,228,0.0,0.0,96,0.00,,SKC,0.00,VWS V14.01,2013-01-11 14:03:00,
2013-01-11 08:08:00,47.1,46.0,29.97,SW,228,0.0,0.0,96,0.00,,SKC,0.00,VWS V14.01,2013-01-11 14:08:00,
2013-01-11 08:10:00,47.0,45.9,29.97,SW,228,0.0,0.0,96,0.00,,SKC,0.00,VWS V14.01,2013-01-11 14:10:00,
2013-01-11 08:13:00,47.6,46.5,29.97,SW,228,0.0,0.0,96,0.00,,SKC,0.00,VWS V14.01,2013-01-11 14:13:00,
2013-01-11 08:18:00,47.9,46.8,29.97,SW,228,0.0,0.0,96,0.00,,SKC,0.00,VWS V14.01,2013-01-11 14:18:00,
2013-01-11 08:20:00,47.8,46.7,29.97,SW,228,0.0,0.0,96,0.00,,SKC,0.00,VWS V14.01,2013-01-11 14:20:00,
2013-01-11 08:23:00,48.3,47.2,29.98,SW,228,0.0,0.0,96,0.00,,SKC,0.00,VWS V14.01,2013-01-11 14:23:00,
2013-01-11 08:28:00,48.8,47.7,29.97,SW,228,0.0,0.0,96,0.00,,SKC,0.00,VWS V14.01,2013-01-11 14:28:00,
2013-01-11 08:30:00,48.7,47.6,29.97,SW,228,0.0,0.0,96,0.00,,SKC,0.00,VWS V14.01,2013-01-11 14:30:00,
2013-01-11 08:33:00,49.3,48.2,29.97,SW,228,0.0,0.0,96,0.00,,SKC,0.00,VWS V14.01,2013-01-11 14:33:00,
2013-01-11 08:37:00,49.8,48.7,29.97,SW,228,2.0,4.0,96,0.00,,SKC,0.00,VWS V14.01,2013-01-11 14:37:00,
2013-01-11 08:40:00,49.7,48.6,29.97,SW,228,0.0,0.0,96,0.00,,SKC,0.00,VWS V14.01,2013-01-11 14:40:00,
2013-01-11 08:42:00,50.5,49.4,29.97,SW,228,0.0,4.0,96,0.00,,SKC,0.00,VWS V14.01,2013-01-11 14:42:00,
2013-01-11 08:47:00,51.1,50.0,29.97,SW,228,0.0,0.0,96,0.00,,SKC,0.00,VWS V14.01,2013-01-11 14:47:00,
2013-01-11 08:50:00,51.0,49.9,29.97,SW,228,0.0,4.0,96,0.00,,SKC,0.00,VWS V14.01,2013-01-11 14:50:00,
2013-01-11 08:52:00,51.7,50.9,29.97,SW,228,5.0,7.0,97,0.00,,SKC,0.00,VWS V14.01,2013-01-11 14:52:00,
2013-01-11 08:57:00,52.3,51.5,29.98,SW,228,0.0,0.0,97,0.00,,SKC,0.00,VWS V14.01,2013-01-11 14:57:00,
2013-01-11 09:00:00,52.2,51.4,29.98,SW,228,0.0,7.0,97,0.00,,SKC,0.00,VWS V14.01,2013-01-11 15:00:00,
2013-01-11 09:02:00,52.7,51.9,29.97,SW,228,0.0,4.0,97,0.00,,SKC,0.00,VWS V14.01,2013-01-11 15:02:00,
2013-01-11 09:07:00,53.2,52.4,29.97,SW,228,3.0,3.0,97,0.00,,SKC,0.00,VWS V14.01,2013-01-11 15:07:00,
2013-01-11 09:10:00,53.1,52.3,29.97,SW,228,0.0,4.0,97,0.00,,SKC,0.00,VWS V14.01,2013-01-11 15:10:00,
2013-01-11 09:12:00,53.7,52.6,29.97,SW,228,3.0,4.0,96,0.00,,SKC,0.00,VWS V14.01,2013-01-11 15:12:00,
2013-01-11 09:17:00,54.3,53.2,29.97,SW,228,0.0,0.0,96,0.00,,SKC,0.00,VWS V14.01,2013-01-11 15:17:00,
2013-01-11 09:20:00,54.2,53.1,29.97,SW,228,0.0,4.0,96,0.00,,SKC,0.00,VWS V14.01,2013-01-11 15:20:00,
2013-01-11 09:22:00,54.8,53.7,29.97,SW,228,0.0,6.0,96,0.00,,SKC,0.00,VWS V14.01,2013-01-11 15:22:00,
2013-01-11 09:28:00,55.3,54.2,29.97,SW,228,0.0,5.0,96,0.00,,SKC,0.00,VWS V14.01,2013-01-11 15:28:00,
2013-01-11 09:30:00,55.2,54.1,29.97,SW,228,5.0,6.0,96,0.00,,SKC,0.00,VWS V14.01,2013-01-11 15:30:00,
2013-01-11 09:33:00,55.8,54.7,29.97,SW,228,4.0,5.0,96,0.00,,SKC,0.00,VWS V14.01,2013-01-11 15:33:00,
2013-01-11 09:38:00,56.4,55.3,29.97,SW,228,0.0,0.0,96,0.00,,SKC,0.00,VWS V14.01,2013-01-11 15:38:00,
2013-01-11 09:40:00,56.3,55.2,29.97,SW,228,0.0,5.0,96,0.00,,SKC,0.00,VWS V14.01,2013-01-11 15:40:00,
2013-01-11 09:43:00,57.0,55.6,29.98,SW,229,5.0,9.0,95,0.00,,SKC,0.00,VWS V14.01,2013-01-11 15:43:00,
2013-01-11 09:48:00,57.4,56.0,29.98,SW,229,4.0,5.0,95,0.00,,SKC,0.00,VWS V14.01,2013-01-11 15:48:00,
2013-01-11 09:50:00,57.3,55.9,29.98,SW,229,0.0,9.0,95,0.00,,SKC,0.00,VWS V14.01,2013-01-11 15:50:00,
2013-01-11 09:52:00,57.8,56.4,29.98,SW,229,1.0,9.0,95,0.00,,SKC,0.00,VWS V14.01,2013-01-11 15:52:00,
2013-01-11 09:58:00,58.2,56.5,29.98,SW,229,0.0,1.0,94,0.00,,SKC,0.00,VWS V14.01,2013-01-11 15:58:00,
2013-01-11 10:00:00,58.1,56.4,29.98,SW,229,0.0,9.0,94,0.00,,SKC,0.00,VWS V14.01,2013-01-11 16:00:00,
2013-01-11 10:03:00,58.7,57.0,29.97,SW,228,6.0,8.0,94,0.00,,SKC,0.00,VWS V14.01,2013-01-11 16:03:00,
2013-01-11 10:07:00,59.1,57.1,29.97,SW,227,0.0,7.0,93,0.00,,SKC,0.00,VWS V14.01,2013-01-11 16:07:00,
2013-01-11 10:10:00,59.0,57.0,29.98,SW,226,0.0,9.0,93,0.00,,SKC,0.00,VWS V14.01,2013-01-11 16:10:00,
2013-01-11 10:12:00,59.8,57.5,29.97,SW,225,6.0,8.0,92,0.00,,SKC,0.00,VWS V14.01,2013-01-11 16:12:00,
2013-01-11 10:17:00,60.5,58.2,29.97,SW,216,6.0,6.0,92,0.00,,SKC,0.00,VWS V14.01,2013-01-11 16:17:00,
2013-01-11 10:20:00,60.4,57.8,29.97,SW,216,6.0,10.0,91,0.00,,SKC,0.00,VWS V14.01,2013-01-11 16:20:00,
2013-01-11 10:22:00,61.2,57.9,29.97,SW,217,7.0,12.0,89,0.00,,SKC,0.00,VWS V14.01,2013-01-11 16:22:00,
2013-01-11 10:27:00,61.8,58.2,29.97,SW,234,5.0,7.0,88,0.00,,SKC,0.00,VWS V14.01,2013-01-11 16:27:00,
2013-01-11 10:30:00,61.7,58.1,29.97,SW,235,0.0,12.0,88,0.00,,SKC,0.00,VWS V14.01,2013-01-11 16:30:00,
2013-01-11 10:32:00,62.5,58.6,29.97,SW,229,0.0,9.0,87,0.00,,SKC,0.00,VWS V14.01,2013-01-11 16:32:00,
2013-01-11 10:37:00,63.2,58.6,29.97,SW,218,2.0,6.0,85,0.00,,SKC,0.00,VWS V14.01,2013-01-11 16:37:00,
2013-01-11 10:40:00,63.2,58.6,29.96,SW,218,6.0,12.0,85,0.00,,SKC,0.00,VWS V14.01,2013-01-11 16:40:00,
2013-01-11 10:42:00,63.7,58.8,29.97,SW,218,4.0,10.0,84,0.00,,SKC,0.00,VWS V14.01,2013-01-11 16:42:00,
2013-01-11 10:47:00,64.2,58.9,29.96,SW,217,3.0,6.0,83,0.00,,SKC,0.00,VWS V14.01,2013-01-11 16:47:00,
2013-01-11 10:50:00,64.1,59.2,29.96,SW,217,6.0,10.0,84,0.00,,SKC,0.00,VWS V14.01,2013-01-11 16:50:00,
2013-01-11 10:52:00,64.7,59.4,29.95,SW,227,8.0,12.0,83,0.00,,SKC,0.00,VWS V14.01,2013-01-11 16:52:00,
2013-01-11 10:57:00,64.9,59.3,29.95,SW,234,7.0,8.0,82,0.00,,SKC,0.00,VWS V14.01,2013-01-11 16:57:00,
2013-01-11 11:00:00,64.9,59.3,29.95,SW,221,7.0,14.0,82,0.00,,SKC,0.00,VWS V14.01,2013-01-11 17:00:00,
2013-01-11 11:02:00,64.6,59.0,29.95,SW,222,4.0,11.0,82,0.00,,SKC,0.00,VWS V14.01,2013-01-11 17:02:00,
2013-01-11 11:07:00,64.4,58.8,29.95,SW,214,0.0,7.0,82,0.00,,SKC,0.00,VWS V14.01,2013-01-11 17:07:00,
2013-01-11 11:10:00,64.5,58.9,29.95,SW,215,7.0,11.0,82,0.00,,SKC,0.00,VWS V14.01,2013-01-11 17:10:00,
2013-01-11 11:12:00,64.3,58.7,29.95,SW,216,0.0,11.0,82,0.00,,SKC,0.00,VWS V14.01,2013-01-11 17:12:00,
2013-01-11 11:17:00,64.2,58.6,29.95,SW,214,6.0,10.0,82,0.00,,SKC,0.00,VWS V14.01,2013-01-11 17:17:00,
2013-01-11 11:20:00,64.2,58.6,29.95,SW,215,6.0,11.0,82,0.00,,SKC,0.00,VWS V14.01,2013-01-11 17:20:00,
2013-01-11 11:22:00,64.1,58.5,29.94,SSW,212,4.0,10.0,82,0.00,,SKC,0.00,VWS V14.01,2013-01-11 17:22:00,
2013-01-11 11:27:00,64.1,58.5,29.94,SSW,213,6.0,7.0,82,0.00,,SKC,0.00,VWS V14.01,2013-01-11 17:27:00,
2013-01-11 11:30:00,64.1,58.5,29.94,SSW,213,0.0,10.0,82,0.00,,SKC,0.00,VWS V14.01,2013-01-11 17:30:00,
2013-01-11 11:32:00,64.4,59.1,29.94,SW,220,0.0,12.0,83,0.00,,SKC,0.00,VWS V14.01,2013-01-11 17:32:00,
2013-01-11 11:37:00,64.9,58.9,29.94,SW,220,1.0,9.0,81,0.00,,SKC,0.00,VWS V14.01,2013-01-11 17:37:00,
2013-01-11 11:40:00,64.9,58.9,29.94,SW,219,0.0,12.0,81,0.00,,SKC,0.00,VWS V14.01,2013-01-11 17:40:00,
2013-01-11 11:42:00,65.2,59.2,29.93,SW,219,4.0,9.0,81,0.00,,SKC,0.00,VWS V14.01,2013-01-11 17:42:00,
2013-01-11 11:47:00,65.6,59.6,29.93,SW,223,1.0,9.0,81,0.00,,SKC,0.00,VWS V14.01,2013-01-11 17:47:00,
2013-01-11 11:50:00,65.5,59.5,29.93,SW,223,9.0,10.0,81,0.00,,SKC,0.00,VWS V14.01,2013-01-11 17:50:00,
2013-01-11 11:52:00,65.9,59.2,29.93,SSW,211,0.0,11.0,79,0.00,,SKC,0.00,VWS V14.01,2013-01-11 17:52:00,
2013-01-11 11:57:00,65.8,59.1,29.93,SW,214,2.0,8.0,79,0.00,,SKC,0.00,VWS V14.01,2013-01-11 17:57:00,
2013-01-11 12:00:00,65.9,59.2,29.93,SSW,213,2.0,11.0,79,0.00,,SKC,0.00,VWS V14.01,2013-01-11 18:00:00,
2013-01-11 12:02:00,65.5,59.2,29.92,SSW,211,6.0,8.0,80,0.00,,SKC,0.00,VWS V14.01,2013-01-11 18:02:00,
2013-01-11 12:07:00,65.3,59.0,29.91,SSW,211,4.0,5.0,80,0.00,,SKC,0.00,VWS V14.01,2013-01-11 18:07:00,
2013-01-11 12:10:00,65.4,59.1,29.92,SSW,211,5.0,8.0,80,0.00,,SKC,0.00,VWS V14.01,2013-01-11 18:10:00,
2013-01-11 12:12:00,65.2,59.2,29.91,SSW,209,0.0,7.0,81,0.00,,SKC,0.00,VWS V14.01,2013-01-11 18:12:00,
2013-01-11 12:17:00,65.2,59.2,29.91,SSW,209,3.0,6.0,81,0.00,,SKC,0.00,VWS V14.01,2013-01-11 18:17:00,
2013-01-11 12:20:00,65.2,59.2,29.91,SSW,209,4.0,7.0,81,0.00,,SKC,0.00,VWS V14.01,2013-01-11 18:20:00,
2013-01-11 12:22:00,65.5,59.5,29.91,SSW,209,0.0,6.0,81,0.00,,SKC,0.00,VWS V14.01,2013-01-11 18:22:00,
2013-01-11 12:27:00,65.8,59.5,29.91,SSW,208,0.0,0.0,80,0.00,,SKC,0.00,VWS V14.01,2013-01-11 18:27:00,
2013-01-11 12:30:00,65.8,59.8,29.91,SSW,208,0.0,6.0,81,0.00,,SKC,0.00,VWS V14.01,2013-01-11 18:30:00,
2013-01-11 12:32:00,65.9,59.9,29.91,SW,223,0.0,11.0,81,0.00,,SKC,0.00,VWS V14.01,2013-01-11 18:32:00,
2013-01-11 12:37:00,65.7,59.7,29.91,SW,222,6.0,8.0,81,0.00,,SKC,0.00,VWS V14.01,2013-01-11 18:37:00,
2013-01-11 12:40:00,65.8,59.8,29.91,SW,225,7.0,13.0,81,0.00,,SKC,0.00,VWS V14.01,2013-01-11 18:40:00,
2013-01-11 12:42:00,65.4,59.8,29.90,SSW,209,7.0,13.0,82,0.00,,SKC,0.00,VWS V14.01,2013-01-11 18:42:00,
2013-01-11 12:47:00,65.5,59.9,29.90,SSW,200,7.0,7.0,82,0.00,,SKC,0.00,VWS V14.01,2013-01-11 18:47:00,
2013-01-11 12:50:00,65.4,59.4,29.90,SSW,209,3.0,14.0,81,0.00,,SKC,0.00,VWS V14.01,2013-01-11 18:50:00,
2013-01-11 12:52:00,65.7,60.1,29.90,SW,218,9.0,11.0,82,0.00,,SKC,0.00,VWS V14.01,2013-01-11 18:52:00,
2013-01-11 12:57:00,66.2,59.9,29.89,SSW,198,3.0,9.0,80,0.00,,SKC,0.00,VWS V14.01,2013-01-11 18:57:00,
2013-01-11 13:00:00,66.2,59.9,29.89,SSW,200,5.0,11.0,80,0.00,,SKC,0.00,VWS V14.01,2013-01-11 19:00:00,
2013-01-11 13:02:00,66.7,60.3,29.89,SSW,200,0.0,9.0,80,0.00,,SKC,0.00,VWS V14.01,2013-01-11 19:02:00,
2013-01-11 13:07:00,67.1,60.4,29.89,SSW,205,2.0,7.0,79,0.00,,SKC,0.00,VWS V14.01,2013-01-11 19:07:00,
2013-01-11 13:10:00,67.0,60.3,29.89,SSW,202,4.0,9.0,79,0.00,,SKC,0.00,VWS V14.01,2013-01-11 19:10:00,
2013-01-11 13:12:00,67.4,60.3,29.89,SSW,205,6.0,7.0,78,0.00,,SKC,0.00,VWS V14.01,2013-01-11 19:12:00,
2013-01-11 13:17:00,67.7,60.6,29.88,SSW,207,0.0,0.0,78,0.00,,SKC,0.00,VWS V14.01,2013-01-11 19:17:00,
2013-01-11 13:20:00,67.7,60.6,29.88,SSW,207,0.0,7.0,78,0.00,,SKC,0.00,VWS V14.01,2013-01-11 19:20:00,
2013-01-11 13:22:00,68.4,60.5,29.88,SSW,207,5.0,7.0,76,0.00,,SKC,0.00,VWS V14.01,2013-01-11 19:22:00,
2013-01-11 13:27:00,68.8,60.6,29.87,SSW,207,0.0,5.0,75,0.00,,SKC,0.00,VWS V14.01,2013-01-11 19:27:00,
2013-01-11 13:30:00,68.8,60.6,29.87,SSW,207,0.0,7.0,75,0.00,,SKC,0.00,VWS V14.01,2013-01-11 19:30:00,
2013-01-11 13:32:00,69.0,60.4,29.86,SSW,200,5.0,7.0,74,0.00,,SKC,0.00,VWS V14.01,2013-01-11 19:32:00,
2013-01-11 13:37:00,69.1,60.5,29.86,SSW,200,1.0,6.0,74,0.00,,SKC,0.00,VWS V14.01,2013-01-11 19:37:00,
2013-01-11 13:40:00,69.1,60.5,29.86,SSW,200,5.0,7.0,74,0.00,,SKC,0.00,VWS V14.01,2013-01-11 19:40:00,
2013-01-11 13:42:00,69.4,60.8,29.85,SSW,200,0.0,6.0,74,0.00,,SKC,0.00,VWS V14.01,2013-01-11 19:42:00,
2013-01-11 13:47:00,69.9,61.2,29.85,SSW,197,0.0,0.0,74,0.00,,SKC,0.00,VWS V14.01,2013-01-11 19:47:00,
2013-01-11 13:50:00,69.8,61.2,29.85,SSW,197,0.0,7.0,74,0.00,,SKC,0.00,VWS V14.01,2013-01-11 19:50:00,
2013-01-11 13:52:00,70.4,61.0,29.84,SSW,199,0.0,7.0,72,0.00,,SKC,0.00,VWS V14.01,2013-01-11 19:52:00,
2013-01-11 13:57:00,70.7,61.2,29.83,South,188,4.0,7.0,72,0.00,,SKC,0.00,VWS V14.01,2013-01-11 19:57:00,
2013-01-11 14:00:00,70.7,61.2,29.83,SSW,194,3.0,7.0,72,0.00,,SKC,0.00,VWS V14.01,2013-01-11 20:00:00,
2013-01-11 14:02:00,70.6,61.1,29.84,South,178,1.0,8.0,72,0.00,,SKC,0.00,VWS V14.01,2013-01-11 20:02:00,
2013-01-11 14:07:00,70.4,61.0,29.84,South,178,0.0,0.0,72,0.00,,SKC,0.00,VWS V14.01,2013-01-11 20:07:00,
2013-01-11 14:10:00,69.3,61.4,29.83,South,173,6.0,8.0,76,0.00,,SKC,0.00,VWS V14.01,2013-01-11 20:10:00,
2013-01-11 14:12:00,70.2,60.8,29.84,South,177,0.0,5.0,72,0.00,,SKC,0.00,VWS V14.01,2013-01-11 20:12:00,
2013-01-11 14:17:00,69.8,60.8,29.85,South,176,0.0,0.0,73,0.00,,SKC,0.00,VWS V14.01,2013-01-11 20:17:00,
2013-01-11 14:20:00,69.9,60.9,29.85,South,176,0.0,7.0,73,0.00,,SKC,0.00,VWS V14.01,2013-01-11 20:20:00,
2013-01-11 14:22:00,69.6,61.0,29.86,South,179,0.0,6.0,74,0.00,,SKC,0.00,VWS V14.01,2013-01-11 20:22:00,
2013-01-11 14:27:00,69.3,60.7,29.85,South,182,0.0,0.0,74,0.00,,SKC,0.00,VWS V14.01,2013-01-11 20:27:00,
2013-01-11 14:30:00,69.3,60.7,29.86,South,182,0.0,8.0,74,0.00,,SKC,0.00,VWS V14.01,2013-01-11 20:30:00,
2013-01-11 14:32:00,69.2,61.0,29.86,South,182,0.0,0.0,75,0.00,,SKC,0.00,VWS V14.01,2013-01-11 20:32:00,
2013-01-11 14:37:00,69.2,61.0,29.85,South,182,0.0,3.0,75,0.00,,SKC,0.00,VWS V14.01,2013-01-11 20:37:00,
2013-01-11 14:40:00,69.2,61.0,29.85,South,182,0.0,5.0,75,0.00,,SKC,0.00,VWS V14.01,2013-01-11 20:40:00,
2013-01-11 14:42:00,69.1,60.8,29.85,South,181,4.0,6.0,75,0.00,,SKC,0.00,VWS V14.01,2013-01-11 20:42:00,
2013-01-11 14:47:00,69.0,60.8,29.84,South,178,0.0,1.0,75,0.00,,SKC,0.00,VWS V14.01,2013-01-11 20:47:00,
2013-01-11 14:50:00,69.0,60.8,29.84,South,178,0.0,8.0,75,0.00,,SKC,0.00,VWS V14.01,2013-01-11 20:50:00,
2013-01-11 14:52:00,68.8,60.6,29.84,South,175,5.0,8.0,75,0.00,,SKC,0.00,VWS V14.01,2013-01-11 20:52:00,
2013-01-11 14:57:00,68.8,60.6,29.84,South,174,0.0,0.0,75,0.00,,SKC,0.00,VWS V14.01,2013-01-11 20:57:00,
2013-01-11 15:00:00,68.8,60.6,29.83,South,174,0.0,8.0,75,0.00,,SKC,0.00,VWS V14.01,2013-01-11 21:00:00,
2013-01-11 15:02:00,69.0,61.1,29.83,South,174,0.0,6.0,76,0.00,,SKC,0.00,VWS V14.01,2013-01-11 21:02:00,
2013-01-11 15:07:00,69.3,61.4,29.83,South,169,0.0,9.0,76,0.00,,SKC,0.00,VWS V14.01,2013-01-11 21:07:00,
2013-01-11 15:10:00,69.3,61.4,29.83,South,173,6.0,8.0,76,0.00,,SKC,0.00,VWS V14.01,2013-01-11 21:10:00,
2013-01-11 15:12:00,69.6,61.3,29.83,South,169,2.0,9.0,75,0.00,,SKC,0.00,VWS V14.01,2013-01-11 21:12:00,
2013-01-11 15:17:00,69.8,61.2,29.82,South,169,6.0,9.0,74,0.00,,SKC,0.00,VWS V14.01,2013-01-11 21:17:00,
2013-01-11 15:20:00,69.7,61.0,29.83,South,169,0.0,9.0,74,0.00,,SKC,0.00,VWS V14.01,2013-01-11 21:20:00,
2013-01-11 15:22:00,69.5,61.2,29.82,SSE,168,2.0,9.0,75,0.00,,SKC,0.00,VWS V14.01,2013-01-11 21:22:00,
2013-01-11 15:27:00,69.3,61.4,29.82,SSE,168,0.0,0.0,76,0.00,,SKC,0.00,VWS V14.01,2013-01-11 21:27:00,
2013-01-11 15:30:00,69.3,61.0,29.82,SSE,168,0.0,9.0,75,0.00,,SKC,0.00,VWS V14.01,2013-01-11 21:30:00,
2013-01-11 15:32:00,69.2,61.3,29.83,South,169,0.0,6.0,76,0.00,,SKC,0.00,VWS V14.01,2013-01-11 21:32:00,
2013-01-11 15:37:00,69.2,61.3,29.83,South,171,3.0,6.0,76,0.00,,SKC,0.00,VWS V14.01,2013-01-11 21:37:00,
2013-01-11 15:40:00,69.2,61.3,29.83,South,170,3.0,6.0,76,0.00,,SKC,0.00,VWS V14.01,2013-01-11 21:40:00,
2013-01-11 15:42:00,69.3,61.8,29.82,South,171,0.0,6.0,77,0.00,,SKC,0.00,VWS V14.01,2013-01-11 21:42:00,
2013-01-11 15:47:00,69.5,61.6,29.82,South,172,4.0,4.0,76,0.00,,SKC,0.00,VWS V14.01,2013-01-11 21:47:00,
2013-01-11 15:50:00,69.5,61.6,29.82,South,172,0.0,6.0,76,0.00,,SKC,0.00,VWS V14.01,2013-01-11 21:50:00,
2013-01-11 15:52:00,69.7,61.8,29.82,South,171,0.0,8.0,76,0.00,,SKC,0.00,VWS V14.01,2013-01-11 21:52:00,
2013-01-11 15:57:00,69.9,62.0,29.82,South,171,0.0,1.0,76,0.00,,SKC,0.00,VWS V14.01,2013-01-11 21:57:00,
2013-01-11 16:00:00,69.9,62.0,29.82,South,171,0.0,8.0,76,0.00,,SKC,0.00,VWS V14.01,2013-01-11 22:00:00,
2013-01-11 16:02:00,70.1,61.8,29.82,South,169,0.0,5.0,75,0.00,,SKC,0.00,VWS V14.01,2013-01-11 22:02:00,
2013-01-11 16:07:00,70.2,61.9,29.82,South,169,0.0,0.0,75,0.00,,SKC,0.00,VWS V14.01,2013-01-11 22:07:00,
2013-01-11 16:10:00,70.2,61.9,29.82,South,169,0.0,6.0,75,0.00,,SKC,0.00,VWS V14.01,2013-01-11 22:10:00,
2013-01-11 16:12:00,70.1,61.8,29.82,South,169,4.0,5.0,75,0.00,,SKC,0.00,VWS V14.01,2013-01-11 22:12:00,
2013-01-11 16:17:00,70.0,62.1,29.82,South,170,0.0,0.0,76,0.00,,SKC,0.00,VWS V14.01,2013-01-11 22:17:00,
2013-01-11 16:20:00,70.1,62.2,29.82,South,170,0.0,6.0,76,0.00,,SKC,0.00,VWS V14.01,2013-01-11 22:20:00,
2013-01-11 16:22:00,69.9,62.0,29.81,South,169,2.0,10.0,76,0.00,,SKC,0.00,VWS V14.01,2013-01-11 22:22:00,
2013-01-11 16:27:00,69.9,62.0,29.81,South,169,0.0,7.0,76,0.00,,SKC,0.00,VWS V14.01,2013-01-11 22:27:00,
2013-01-11 16:30:00,69.9,62.0,29.81,South,169,7.0,10.0,76,0.00,,SKC,0.00,VWS V14.01,2013-01-11 22:30:00,
2013-01-11 16:32:00,69.9,62.4,29.81,South,169,0.0,7.0,77,0.00,,SKC,0.00,VWS V14.01,2013-01-11 22:32:00,
2013-01-11 16:37:00,70.0,62.5,29.81,South,169,0.0,0.0,77,0.00,,SKC,0.00,VWS V14.01,2013-01-11 22:37:00,
2013-01-11 16:40:00,70.0,62.5,29.81,South,169,0.0,7.0,77,0.00,,SKC,0.00,VWS V14.01,2013-01-11 22:40:00,
2013-01-11 16:42:00,70.1,62.6,29.82,South,169,0.0,0.0,77,0.00,,SKC,0.00,VWS V14.01,2013-01-11 22:42:00,
2013-01-11 16:47:00,70.1,62.6,29.82,South,169,0.0,0.0,77,0.00,,SKC,0.00,VWS V14.01,2013-01-11 22:47:00,
2013-01-11 16:50:00,70.1,62.6,29.82,South,169,0.0,0.0,77,0.00,,SKC,0.00,VWS V14.01,2013-01-11 22:50:00,
2013-01-11 16:52:00,70.0,62.5,29.82,South,169,0.0,0.0,77,0.00,,SKC,0.00,VWS V14.01,2013-01-11 22:52:00,
2013-01-11 16:57:00,69.9,62.7,29.82,South,169,0.0,0.0,78,0.00,,SKC,0.00,VWS V14.01,2013-01-11 22:57:00,
2013-01-11 17:00:00,69.9,62.7,29.82,South,169,0.0,0.0,78,0.00,,SKC,0.00,VWS V14.01,2013-01-11 23:00:00,
2013-01-11 17:02:00,69.9,62.7,29.82,South,169,0.0,0.0,78,0.00,,SKC,0.00,VWS V14.01,2013-01-11 23:02:00,
2013-01-11 17:07:00,69.7,62.5,29.82,South,169,0.0,0.0,78,0.00,,SKC,0.00,VWS V14.01,2013-01-11 23:07:00,
2013-01-11 17:10:00,69.8,62.6,29.82,South,169,0.0,1.0,78,0.00,,SKC,0.00,VWS V14.01,2013-01-11 23:10:00,
2013-01-11 17:12:00,69.6,62.8,29.82,South,169,0.0,0.0,79,0.00,,SKC,0.00,VWS V14.01,2013-01-11 23:12:00,
2013-01-11 17:17:00,69.4,63.0,29.82,South,169,0.0,0.0,80,0.00,,SKC,0.00,VWS V14.01,2013-01-11 23:17:00,
2013-01-11 17:20:00,69.4,63.0,29.82,South,169,0.0,0.0,80,0.00,,SKC,0.00,VWS V14.01,2013-01-11 23:20:00,
2013-01-11 17:22:00,69.2,62.8,29.82,South,169,0.0,0.0,80,0.00,,SKC,0.00,VWS V14.01,2013-01-11 23:22:00,
2013-01-11 17:27:00,69.0,62.6,29.82,South,169,0.0,0.0,80,0.00,,SKC,0.00,VWS V14.01,2013-01-11 23:27:00,
2013-01-11 17:30:00,69.0,62.6,29.82,South,169,0.0,0.0,80,0.00,,SKC,0.00,VWS V14.01,2013-01-11 23:30:00,
2013-01-11 17:32:00,68.8,62.4,29.82,South,169,0.0,0.0,80,0.00,,SKC,0.00,VWS V14.01,2013-01-11 23:32:00,
2013-01-11 17:37:00,68.7,62.6,29.82,South,169,0.0,0.0,81,0.00,,SKC,0.00,VWS V14.01,2013-01-11 23:37:00,
2013-01-11 17:40:00,68.7,62.6,29.82,South,169,0.0,0.0,81,0.00,,SKC,0.00,VWS V14.01,2013-01-11 23:40:00,
2013-01-11 17:42:00,68.6,62.5,29.82,South,169,0.0,0.0,81,0.00,,SKC,0.00,VWS V14.01,2013-01-11 23:42:00,
2013-01-11 17:47:00,68.5,62.5,29.82,South,169,0.0,0.0,81,0.00,,SKC,0.00,VWS V14.01,2013-01-11 23:47:00,
2013-01-11 17:50:00,68.5,62.5,29.82,South,169,0.0,0.0,81,0.00,,SKC,0.00,VWS V14.01,2013-01-11 23:50:00,
2013-01-11 17:52:00,68.4,62.3,29.81,South,169,0.0,0.0,81,0.00,,SKC,0.00,VWS V14.01,2013-01-11 23:52:00,
2013-01-11 17:57:00,68.3,62.6,29.81,South,169,0.0,0.0,82,0.00,,SKC,0.00,VWS V14.01,2013-01-11 23:57:00,
2013-01-11 18:00:00,68.3,62.6,29.81,South,169,0.0,0.0,82,0.00,,SKC,0.00,VWS V14.01,2013-01-12 00:00:00,
2013-01-11 18:02:00,68.2,62.5,29.81,South,169,0.0,0.0,82,0.00,,SKC,0.00,VWS V14.01,2013-01-12 00:02:00,
2013-01-11 18:07:00,68.1,62.8,29.82,South,169,0.0,0.0,83,0.00,,SKC,0.00,VWS V14.01,2013-01-12 00:07:00,
2013-01-11 18:10:00,68.1,62.8,29.81,South,169,0.0,0.0,83,0.00,,SKC,0.00,VWS V14.01,2013-01-12 00:10:00,
2013-01-11 18:12:00,68.0,62.7,29.81,South,169,0.0,0.0,83,0.00,,SKC,0.00,VWS V14.01,2013-01-12 00:12:00,
2013-01-11 18:17:00,67.9,62.5,29.81,South,169,0.0,0.0,83,0.00,,SKC,0.00,VWS V14.01,2013-01-12 00:17:00,
2013-01-11 18:20:00,67.9,62.5,29.81,South,169,0.0,0.0,83,0.00,,SKC,0.00,VWS V14.01,2013-01-12 00:20:00,
2013-01-11 18:22:00,67.7,62.4,29.81,South,169,0.0,0.0,83,0.00,,SKC,0.00,VWS V14.01,2013-01-12 00:22:00,
2013-01-11 18:27:00,67.6,62.6,29.81,South,169,0.0,0.0,84,0.00,,SKC,0.00,VWS V14.01,2013-01-12 00:27:00,
2013-01-11 18:30:00,67.7,62.7,29.81,South,169,0.0,0.0,84,0.00,,SKC,0.00,VWS V14.01,2013-01-12 00:30:00,
2013-01-11 18:32:00,67.5,62.5,29.81,South,169,0.0,0.0,84,0.00,,SKC,0.00,VWS V14.01,2013-01-12 00:32:00,
2013-01-11 18:37:00,67.4,62.4,29.81,South,169,0.0,0.0,84,0.00,,SKC,0.00,VWS V14.01,2013-01-12 00:37:00,
2013-01-11 18:40:00,67.4,62.4,29.82,South,169,0.0,0.0,84,0.00,,SKC,0.00,VWS V14.01,2013-01-12 00:40:00,
2013-01-11 18:42:00,67.3,62.3,29.81,South,169,0.0,0.0,84,0.00,,SKC,0.00,VWS V14.01,2013-01-12 00:42:00,
2013-01-11 18:47:00,67.1,62.5,29.81,South,169,0.0,0.0,85,0.00,,SKC,0.00,VWS V14.01,2013-01-12 00:47:00,
2013-01-11 18:50:00,67.1,62.5,29.81,South,169,0.0,0.0,85,0.00,,SKC,0.00,VWS V14.01,2013-01-12 00:50:00,
2013-01-11 18:52:00,67.0,62.3,29.82,South,169,0.0,0.0,85,0.00,,SKC,0.00,VWS V14.01,2013-01-12 00:52:00,
2013-01-11 18:57:00,66.9,62.2,29.81,South,169,0.0,0.0,85,0.00,,SKC,0.00,VWS V14.01,2013-01-12 00:57:00,
2013-01-11 19:00:00,66.9,62.2,29.81,South,169,0.0,0.0,85,0.00,,SKC,0.00,VWS V14.01,2013-01-12 01:00:00,
2013-01-11 19:02:00,66.8,62.2,29.81,South,169,0.0,0.0,85,0.00,,SKC,0.00,VWS V14.01,2013-01-12 01:02:00,
2013-01-11 19:07:00,66.8,62.5,29.81,South,169,0.0,0.0,86,0.00,,SKC,0.00,VWS V14.01,2013-01-12 01:07:00,
2013-01-11 19:10:00,66.8,62.5,29.81,South,169,0.0,0.0,86,0.00,,SKC,0.00,VWS V14.01,2013-01-12 01:10:00,
2013-01-11 19:12:00,66.7,62.4,29.82,South,169,0.0,0.0,86,0.00,,SKC,0.00,VWS V14.01,2013-01-12 01:12:00,
2013-01-11 19:17:00,66.7,62.4,29.82,South,169,0.0,0.0,86,0.00,,SKC,0.00,VWS V14.01,2013-01-12 01:17:00,
2013-01-11 19:20:00,66.7,62.4,29.82,South,169,0.0,0.0,86,0.00,,SKC,0.00,VWS V14.01,2013-01-12 01:20:00,
2013-01-11 19:22:00,66.7,62.4,29.82,South,169,0.0,0.0,86,0.00,,SKC,0.00,VWS V14.01,2013-01-12 01:22:00,
2013-01-11 19:27:00,66.8,62.8,29.82,South,169,0.0,0.0,87,0.00,,SKC,0.00,VWS V14.01,2013-01-12 01:27:00,
2013-01-11 19:30:00,66.8,62.8,29.82,South,169,0.0,0.0,87,0.00,,SKC,0.00,VWS V14.01,2013-01-12 01:30:00,
2013-01-11 19:32:00,66.9,63.2,29.82,South,169,0.0,1.0,88,0.00,,SKC,0.00,VWS V14.01,2013-01-12 01:32:00,
2013-01-11 19:37:00,67.0,63.3,29.82,South,169,0.0,0.0,88,0.00,,SKC,0.00,VWS V14.01,2013-01-12 01:37:00,
2013-01-11 19:40:00,67.0,63.3,29.82,South,169,0.0,2.0,88,0.00,,SKC,0.00,VWS V14.01,2013-01-12 01:40:00,
2013-01-11 19:42:00,67.2,63.5,29.83,South,169,0.0,0.0,88,0.00,,SKC,0.00,VWS V14.01,2013-01-12 01:42:00,
2013-01-11 19:47:00,67.2,63.5,29.83,South,169,0.0,0.0,88,0.00,,SKC,0.00,VWS V14.01,2013-01-12 01:47:00,
2013-01-11 19:50:00,67.2,63.5,29.82,South,169,0.0,0.0,88,0.00,,SKC,0.00,VWS V14.01,2013-01-12 01:50:00,
2013-01-11 19:52:00,67.3,64.0,29.83,South,169,0.0,0.0,89,0.00,,SKC,0.00,VWS V14.01,2013-01-12 01:52:00,
2013-01-11 19:57:00,67.4,64.1,29.83,South,169,0.0,0.0,89,0.00,,SKC,0.00,VWS V14.01,2013-01-12 01:57:00,
2013-01-11 20:00:00,67.4,64.1,29.83,South,169,0.0,0.0,89,0.00,,SKC,0.00,VWS V14.01,2013-01-12 02:00:00,
2013-01-11 20:02:00,67.5,64.5,29.83,South,169,0.0,5.0,90,0.00,,SKC,0.00,VWS V14.01,2013-01-12 02:02:00,
2013-01-11 20:07:00,67.6,64.9,29.83,South,169,0.0,0.0,91,0.00,,SKC,0.00,VWS V14.01,2013-01-12 02:07:00,
2013-01-11 20:10:00,67.6,64.9,29.83,South,169,0.0,5.0,91,0.00,,SKC,0.00,VWS V14.01,2013-01-12 02:10:00,
2013-01-11 20:12:00,67.7,65.0,29.83,South,169,2.0,4.0,91,0.00,,SKC,0.00,VWS V14.01,2013-01-12 02:12:00,
2013-01-11 20:17:00,67.8,65.1,29.83,South,169,0.0,2.0,91,0.00,,SKC,0.00,VWS V14.01,2013-01-12 02:17:00,
2013-01-11 20:20:00,67.8,65.1,29.83,South,169,0.0,5.0,91,0.00,,SKC,0.00,VWS V14.01,2013-01-12 02:20:00,
2013-01-11 20:22:00,67.9,65.2,29.83,South,169,0.0,2.0,91,0.00,,SKC,0.00,VWS V14.01,2013-01-12 02:22:00,
2013-01-11 20:27:00,68.0,65.3,29.83,SSE,168,0.0,0.0,91,0.00,,SKC,0.00,VWS V14.01,2013-01-12 02:27:00,
2013-01-11 20:30:00,68.0,65.3,29.83,SSE,168,0.0,4.0,91,0.00,,SKC,0.00,VWS V14.01,2013-01-12 02:30:00,
2013-01-11 20:32:00,68.0,65.3,29.82,SSE,166,5.0,5.0,91,0.00,,SKC,0.00,VWS V14.01,2013-01-12 02:32:00,
2013-01-11 20:37:00,68.0,65.3,29.83,SSE,166,0.0,0.0,91,0.00,,SKC,0.00,VWS V14.01,2013-01-12 02:37:00,
2013-01-11 20:40:00,68.0,65.3,29.83,SSE,166,0.0,5.0,91,0.00,,SKC,0.00,VWS V14.01,2013-01-12 02:40:00,
2013-01-11 20:42:00,67.9,65.2,29.83,SSE,165,0.0,1.0,91,0.00,,SKC,0.00,VWS V14.01,2013-01-12 02:42:00,
2013-01-11 20:47:00,67.9,65.5,29.82,SSE,165,0.0,0.0,92,0.00,,SKC,0.00,VWS V14.01,2013-01-12 02:47:00,
2013-01-11 20:50:00,67.9,65.5,29.82,SSE,165,0.0,3.0,92,0.00,,SKC,0.00,VWS V14.01,2013-01-12 02:50:00,
2013-01-11 20:52:00,67.9,65.5,29.83,SSE,165,0.0,0.0,92,0.00,,SKC,0.00,VWS V14.01,2013-01-12 02:52:00,
2013-01-11 20:57:00,67.9,65.5,29.82,SSE,165,0.0,2.0,92,0.00,,SKC,0.00,VWS V14.01,2013-01-12 02:57:00,
2013-01-11 21:00:00,67.9,65.5,29.82,SSE,165,2.0,5.0,92,0.00,,SKC,0.00,VWS V14.01,2013-01-12 03:00:00,
2013-01-11 21:02:00,67.9,65.5,29.82,SSE,165,0.0,4.0,92,0.00,,SKC,0.00,VWS V14.01,2013-01-12 03:02:00,
2013-01-11 21:07:00,67.9,65.5,29.83,SSE,165,3.0,4.0,92,0.00,,SKC,0.00,VWS V14.01,2013-01-12 03:07:00,
2013-01-11 21:10:00,67.9,65.5,29.82,SSE,165,0.0,4.0,92,0.00,,SKC,0.00,VWS V14.01,2013-01-12 03:10:00,
2013-01-11 21:12:00,67.9,65.5,29.83,SSE,165,0.0,5.0,92,0.00,,SKC,0.00,VWS V14.01,2013-01-12 03:12:00,
2013-01-11 21:17:00,67.9,65.5,29.83,SSE,165,0.0,0.0,92,0.00,,SKC,0.00,VWS V14.01,2013-01-12 03:17:00,
2013-01-11 21:20:00,67.9,65.5,29.83,SSE,165,0.0,7.0,92,0.00,,SKC,0.00,VWS V14.01,2013-01-12 03:20:00,
2013-01-11 21:22:00,67.9,65.8,29.83,SSE,165,0.0,6.0,93,0.00,,SKC,0.00,VWS V14.01,2013-01-12 03:22:00,
2013-01-11 21:27:00,67.9,65.8,29.83,SSE,165,0.0,0.0,93,0.00,,SKC,0.00,VWS V14.01,2013-01-12 03:27:00,
2013-01-11 21:30:00,67.9,65.8,29.83,SSE,165,0.0,9.0,93,0.00,,SKC,0.00,VWS V14.01,2013-01-12 03:30:00,
2013-01-11 21:32:00,67.9,65.8,29.82,SSE,165,0.0,3.0,93,0.00,,SKC,0.00,VWS V14.01,2013-01-12 03:32:00,
2013-01-11 21:37:00,67.9,65.8,29.82,SSE,165,0.0,0.0,93,0.00,,SKC,0.00,VWS V14.01,2013-01-12 03:37:00,
2013-01-11 21:40:00,67.9,65.8,29.83,SSE,165,0.0,5.0,93,0.00,,SKC,0.00,VWS V14.01,2013-01-12 03:40:00,
2013-01-11 21:42:00,67.9,65.8,29.82,SSE,164,0.0,5.0,93,0.00,,SKC,0.00,VWS V14.01,2013-01-12 03:42:00,
2013-01-11 21:47:00,67.9,65.8,29.82,SSE,161,0.0,2.0,93,0.00,,SKC,0.00,VWS V14.01,2013-01-12 03:47:00,
2013-01-11 21:50:00,67.9,65.8,29.82,SSE,161,0.0,8.0,93,0.00,,SKC,0.00,VWS V14.01,2013-01-12 03:50:00,
2013-01-11 21:52:00,67.9,65.8,29.83,SSE,160,0.0,8.0,93,0.00,,SKC,0.00,VWS V14.01,2013-01-12 03:52:00,
2013-01-11 21:57:00,67.9,65.8,29.84,SSE,161,3.0,5.0,93,0.00,,SKC,0.00,VWS V14.01,2013-01-12 03:57:00,
2013-01-11 22:00:00,67.9,65.8,29.83,SSE,161,0.0,9.0,93,0.00,,SKC,0.00,VWS V14.01,2013-01-12 04:00:00,
2013-01-11 22:02:00,67.9,65.8,29.83,SSE,161,0.0,9.0,93,0.00,,SKC,0.00,VWS V14.01,2013-01-12 04:02:00,
2013-01-11 22:07:00,67.9,65.8,29.83,SSE,162,0.0,5.0,93,0.00,,SKC,0.00,VWS V14.01,2013-01-12 04:07:00,
2013-01-11 22:10:00,67.9,65.8,29.83,SSE,162,0.0,11.0,93,0.00,,SKC,0.00,VWS V14.01,2013-01-12 04:10:00,
2013-01-11 22:12:00,67.9,65.8,29.83,SSE,163,0.0,7.0,93,0.00,,SKC,0.00,VWS V14.01,2013-01-12 04:12:00,
2013-01-11 22:17:00,67.9,65.8,29.83,SSE,163,0.0,3.0,93,0.00,,SKC,0.00,VWS V14.01,2013-01-12 04:17:00,
2013-01-11 22:20:00,67.9,65.8,29.82,SSE,163,0.0,8.0,93,0.00,,SKC,0.00,VWS V14.01,2013-01-12 04:20:00,
2013-01-11 22:22:00,67.9,65.8,29.83,SSE,165,3.0,7.0,93,0.00,,SKC,0.00,VWS V14.01,2013-01-12 04:22:00,
2013-01-11 22:27:00,67.9,65.8,29.82,SSE,163,0.0,3.0,93,0.00,,SKC,0.00,VWS V14.01,2013-01-12 04:27:00,
2013-01-11 22:30:00,67.9,65.8,29.82,SSE,164,0.0,7.0,93,0.00,,SKC,0.00,VWS V14.01,2013-01-12 04:30:00,
2013-01-11 22:32:00,67.9,66.1,29.82,SSE,162,0.0,9.0,94,0.00,,SKC,0.00,VWS V14.01,2013-01-12 04:32:00,
2013-01-11 22:37:00,67.8,66.0,29.82,SSE,162,0.0,0.0,94,0.00,,SKC,0.00,VWS V14.01,2013-01-12 04:37:00,
2013-01-11 22:40:00,67.8,66.0,29.82,SSE,162,0.0,9.0,94,0.00,,SKC,0.00,VWS V14.01,2013-01-12 04:40:00,
2013-01-11 22:42:00,67.8,66.0,29.82,SSE,161,0.0,11.0,94,0.00,,SKC,0.00,VWS V14.01,2013-01-12 04:42:00,
2013-01-11 22:47:00,67.7,65.9,29.83,SSE,160,0.0,0.0,94,0.00,,SKC,0.00,VWS V14.01,2013-01-12 04:47:00,
2013-01-11 22:50:00,67.7,65.9,29.82,SSE,160,0.0,11.0,94,0.00,,SKC,0.00,VWS V14.01,2013-01-12 04:50:00,
2013-01-11 22:52:00,67.7,65.9,29.83,SSE,161,5.0,11.0,94,0.00,,SKC,0.00,VWS V14.01,2013-01-12 04:52:00,
2013-01-11 22:57:00,67.7,65.9,29.82,SSE,159,8.0,8.0,94,0.00,,SKC,0.00,VWS V14.01,2013-01-12 04:57:00,
2013-01-11 23:00:00,67.7,65.9,29.82,SSE,161,0.0,11.0,94,0.00,,SKC,0.00,VWS V14.01,2013-01-12 05:00:00,
2013-01-11 23:01:00,67.7,65.9,29.82,SSE,161,0.0,11.0,94,0.00,,SKC,0.00,VWS V14.01,2013-01-12 05:01:00,
2013-01-11 23:03:00,67.7,65.9,29.82,SSE,161,3.0,11.0,94,0.00,,SKC,0.00,VWS V14.01,2013-01-12 05:03:00,
2013-01-11 23:08:00,67.7,65.9,29.82,SSE,162,0.0,1.0,94,0.00,,SKC,0.00,VWS V14.01,2013-01-12 05:08:00,
2013-01-11 23:10:00,67.7,65.9,29.82,SSE,162,0.0,11.0,94,0.00,,SKC,0.00,VWS V14.01,2013-01-12 05:10:00,
2013-01-11 23:13:00,67.7,65.9,29.82,SSE,163,0.0,10.0,94,0.00,,SKC,0.00,VWS V14.01,2013-01-12 05:13:00,
2013-01-11 23:18:00,67.7,65.9,29.82,SSE,163,0.0,6.0,94,0.00,,SKC,0.00,VWS V14.01,2013-01-12 05:18:00,
2013-01-11 23:20:00,67.7,65.9,29.82,SSE,163,0.0,10.0,94,0.00,,SKC,0.00,VWS V14.01,2013-01-12 05:20:00,
2013-01-11 23:23:00,67.7,65.9,29.82,SSE,163,0.0,8.0,94,0.00,,SKC,0.00,VWS V14.01,2013-01-12 05:23:00,
2013-01-11 23:28:00,67.7,65.9,29.81,SSE,163,2.0,8.0,94,0.00,,SKC,0.00,VWS V14.01,2013-01-12 05:28:00,
2013-01-11 23:30:00,67.7,65.9,29.82,SSE,163,0.0,8.0,94,0.00,,SKC,0.00,VWS V14.01,2013-01-12 05:30:00,
2013-01-11 23:33:00,67.7,65.9,29.81,SSE,165,0.0,10.0,94,0.00,,SKC,0.00,VWS V14.01,2013-01-12 05:33:00,
2013-01-11 23:38:00,67.7,65.9,29.82,SSE,164,6.0,11.0,94,0.00,,SKC,0.00,VWS V14.01,2013-01-12 05:38:00,
2013-01-11 23:40:00,67.7,65.9,29.81,SSE,165,4.0,10.0,94,0.00,,SKC,0.00,VWS V14.01,2013-01-12 05:40:00,
2013-01-11 23:43:00,67.7,65.9,29.82,SSE,164,0.0,11.0,94,0.00,,SKC,0.00,VWS V14.01,2013-01-12 05:43:00,
2013-01-11 23:48:00,67.7,65.9,29.81,SSE,164,5.0,7.0,94,0.00,,SKC,0.00,VWS V14.01,2013-01-12 05:48:00,
2013-01-11 23:50:00,67.8,66.0,29.81,SSE,163,4.0,11.0,94,0.00,,SKC,0.00,VWS V14.01,2013-01-12 05:50:00,
2013-01-11 23:53:00,67.8,66.0,29.81,SSE,165,1.0,10.0,94,0.00,,SKC,0.00,VWS V14.01,2013-01-12 05:53:00,
2013-01-11 23:58:00,67.8,66.0,29.81,SSE,163,0.0,6.0,94,0.00,,SKC,0.00,VWS V14.01,2013-01-12 05:58:00,